sensor_id;sensor_type;location;lat;lon;timestamp;pressure;altitude;pressure_sealevel;temperature
67599;BMP280;62026;39.230;9.122;2023-11-19T00:01:23;101906.81;;;14.94
67599;BMP280;62026;39.230;9.122;2023-11-19T00:03:49;101889.41;;;14.91
67599;BMP280;62026;39.230;9.122;2023-11-19T00:06:15;101893.91;;;14.91
67599;BMP280;62026;39.230;9.122;2023-11-19T00:08:42;101886.38;;;14.81
67599;BMP280;62026;39.230;9.122;2023-11-19T00:11:09;101888.03;;;14.75
67599;BMP280;62026;39.230;9.122;2023-11-19T00:13:35;101887.03;;;14.70
67599;BMP280;62026;39.230;9.122;2023-11-19T00:16:01;101888.00;;;14.95
67599;BMP280;62026;39.230;9.122;2023-11-19T00:18:30;101889.47;;;15.36
67599;BMP280;62026;39.230;9.122;2023-11-19T00:20:55;101895.19;;;15.46
67599;BMP280;62026;39.230;9.122;2023-11-19T00:23:21;101895.94;;;15.53
67599;BMP280;62026;39.230;9.122;2023-11-19T00:25:48;101892.88;;;15.56
67599;BMP280;62026;39.230;9.122;2023-11-19T00:28:14;101887.56;;;15.56
67599;BMP280;62026;39.230;9.122;2023-11-19T00:30:40;101886.53;;;15.57
67599;BMP280;62026;39.230;9.122;2023-11-19T00:33:06;101888.38;;;15.57
67599;BMP280;62026;39.230;9.122;2023-11-19T00:35:32;101886.53;;;15.57
67599;BMP280;62026;39.230;9.122;2023-11-19T00:37:58;101888.94;;;15.59
67599;BMP280;62026;39.230;9.122;2023-11-19T00:40:24;101890.56;;;15.60
67599;BMP280;62026;39.230;9.122;2023-11-19T00:42:50;101882.03;;;15.58
67599;BMP280;62026;39.230;9.122;2023-11-19T00:45:16;101879.56;;;15.56
67599;BMP280;62026;39.230;9.122;2023-11-19T00:47:42;101881.19;;;15.57
67599;BMP280;62026;39.230;9.122;2023-11-19T00:50:09;101880.75;;;15.60
67599;BMP280;62026;39.230;9.122;2023-11-19T00:52:35;101878.72;;;15.62
67599;BMP280;62026;39.230;9.122;2023-11-19T00:55:03;101873.41;;;15.62
67599;BMP280;62026;39.230;9.122;2023-11-19T00:57:31;101875.41;;;15.60
67599;BMP280;62026;39.230;9.122;2023-11-19T00:59:59;101877.91;;;15.62
67599;BMP280;62026;39.230;9.122;2023-11-19T01:02:25;101873.41;;;15.62
67599;BMP280;62026;39.230;9.122;2023-11-19T01:04:51;101884.88;;;15.63
67599;BMP280;62026;39.230;9.122;2023-11-19T01:07:18;101883.03;;;15.63
67599;BMP280;62026;39.230;9.122;2023-11-19T01:09:44;101873.97;;;15.64
67599;BMP280;62026;39.230;9.122;2023-11-19T01:12:10;101876.25;;;15.61
67599;BMP280;62026;39.230;9.122;2023-11-19T01:14:36;101884.03;;;15.62
67599;BMP280;62026;39.230;9.122;2023-11-19T01:17:02;101887.28;;;15.64
67599;BMP280;62026;39.230;9.122;2023-11-19T01:19:30;101878.28;;;15.65
67599;BMP280;62026;39.230;9.122;2023-11-19T01:21:56;101876.63;;;15.64
67599;BMP280;62026;39.230;9.122;2023-11-19T01:24:22;101880.94;;;15.65
67599;BMP280;62026;39.230;9.122;2023-11-19T01:26:48;101877.69;;;15.63
67599;BMP280;62026;39.230;9.122;2023-11-19T01:29:14;101877.47;;;15.65
67599;BMP280;62026;39.230;9.122;2023-11-19T01:31:45;101878.88;;;15.67
67599;BMP280;62026;39.230;9.122;2023-11-19T01:34:12;101876.63;;;15.64
67599;BMP280;62026;39.230;9.122;2023-11-19T01:36:39;101877.47;;;15.65
67599;BMP280;62026;39.230;9.122;2023-11-19T01:39:05;101885.44;;;15.65
67599;BMP280;62026;39.230;9.122;2023-11-19T01:41:35;101884.63;;;15.64
67599;BMP280;62026;39.230;9.122;2023-11-19T01:44:02;101884.03;;;15.62
67599;BMP280;62026;39.230;9.122;2023-11-19T01:46:29;101877.91;;;15.62
67599;BMP280;62026;39.230;9.122;2023-11-19T01:48:55;101882.41;;;15.61
67599;BMP280;62026;39.230;9.122;2023-11-19T01:51:22;101886.06;;;15.60
67599;BMP280;62026;39.230;9.122;2023-11-19T01:53:49;101889.75;;;15.59
67599;BMP280;62026;39.230;9.122;2023-11-19T01:56:16;101884.44;;;15.59
67599;BMP280;62026;39.230;9.122;2023-11-19T01:58:44;101882.81;;;15.58
67599;BMP280;62026;39.230;9.122;2023-11-19T02:01:12;101870.56;;;15.57
67599;BMP280;62026;39.230;9.122;2023-11-19T02:03:39;101874.44;;;15.61
67599;BMP280;62026;39.230;9.122;2023-11-19T02:06:06;101880.75;;;15.60
67599;BMP280;62026;39.230;9.122;2023-11-19T02:08:32;101870.75;;;15.62
67599;BMP280;62026;39.230;9.122;2023-11-19T02:10:58;101869.47;;;15.65
67599;BMP280;62026;39.230;9.122;2023-11-19T02:13:26;101869.47;;;15.65
67599;BMP280;62026;39.230;9.122;2023-11-19T02:15:54;101870.06;;;15.67
67599;BMP280;62026;39.230;9.122;2023-11-19T02:18:21;101867.19;;;15.68
67599;BMP280;62026;39.230;9.122;2023-11-19T02:20:49;101861.06;;;15.68
67599;BMP280;62026;39.230;9.122;2023-11-19T02:23:16;101860.03;;;15.69
67599;BMP280;62026;39.230;9.122;2023-11-19T02:25:47;101854.72;;;15.69
67599;BMP280;62026;39.230;9.122;2023-11-19T02:28:15;101851.22;;;15.68
67599;BMP280;62026;39.230;9.122;2023-11-19T02:30:42;101850.00;;;15.71
67599;BMP280;62026;39.230;9.122;2023-11-19T02:33:08;101849.16;;;15.70
67599;BMP280;62026;39.230;9.122;2023-11-19T02:35:34;101852.84;;;15.69
67599;BMP280;62026;39.230;9.122;2023-11-19T02:38:00;101849.38;;;15.69
67599;BMP280;62026;39.230;9.122;2023-11-19T02:40:26;101842.22;;;15.69
67599;BMP280;62026;39.230;9.122;2023-11-19T02:42:53;101829.50;;;15.71
67599;BMP280;62026;39.230;9.122;2023-11-19T02:45:24;101824.78;;;15.73
67599;BMP280;62026;39.230;9.122;2023-11-19T02:47:52;101820.50;;;15.72
67599;BMP280;62026;39.230;9.122;2023-11-19T02:50:19;101811.47;;;15.73
67599;BMP280;62026;39.230;9.122;2023-11-19T02:52:53;101806.16;;;15.73
67599;BMP280;62026;39.230;9.122;2023-11-19T02:55:19;101809.63;;;15.74
67599;BMP280;62026;39.230;9.122;2023-11-19T02:57:46;101805.09;;;15.74
67599;BMP280;62026;39.230;9.122;2023-11-19T03:00:19;101798.72;;;15.75
67599;BMP280;62026;39.230;9.122;2023-11-19T03:02:50;101810.19;;;15.76
67599;BMP280;62026;39.230;9.122;2023-11-19T03:05:31;101805.69;;;15.76
67599;BMP280;62026;39.230;9.122;2023-11-19T03:07:57;101797.53;;;15.78
67599;BMP280;62026;39.230;9.122;2023-11-19T03:10:23;101800.38;;;15.76
67599;BMP280;62026;39.230;9.122;2023-11-19T03:12:49;101797.53;;;15.78
67599;BMP280;62026;39.230;9.122;2023-11-19T03:15:15;101790.13;;;15.80
67599;BMP280;62026;39.230;9.122;2023-11-19T03:17:43;101789.31;;;15.79
67599;BMP280;62026;39.230;9.122;2023-11-19T03:20:11;101793.59;;;15.80
67599;BMP280;62026;39.230;9.122;2023-11-19T03:22:41;101789.88;;;15.82
67599;BMP280;62026;39.230;9.122;2023-11-19T03:25:08;101793.75;;;15.86
67599;BMP280;62026;39.230;9.122;2023-11-19T03:27:38;101798.03;;;15.87
67599;BMP280;62026;39.230;9.122;2023-11-19T03:30:06;101795.97;;;15.89
67599;BMP280;62026;39.230;9.122;2023-11-19T03:32:33;101794.13;;;15.89
67599;BMP280;62026;39.230;9.122;2023-11-19T03:35:02;101793.31;;;15.89
67599;BMP280;62026;39.230;9.122;2023-11-19T03:37:30;101785.72;;;15.92
67599;BMP280;62026;39.230;9.122;2023-11-19T03:39:58;101782.22;;;15.92
67599;BMP280;62026;39.230;9.122;2023-11-19T03:42:29;101783.66;;;15.94
67599;BMP280;62026;39.230;9.122;2023-11-19T03:44:57;101788.78;;;15.96
67599;BMP280;62026;39.230;9.122;2023-11-19T03:47:23;101783.44;;;15.96
67599;BMP280;62026;39.230;9.122;2023-11-19T03:49:50;101785.03;;;15.97
67599;BMP280;62026;39.230;9.122;2023-11-19T03:52:17;101778.13;;;15.96
67599;BMP280;62026;39.230;9.122;2023-11-19T03:54:44;101771.97;;;15.95
67599;BMP280;62026;39.230;9.122;2023-11-19T03:57:12;101772.78;;;15.96
67599;BMP280;62026;39.230;9.122;2023-11-19T03:59:39;101770.34;;;15.94
67599;BMP280;62026;39.230;9.122;2023-11-19T04:02:05;101773.22;;;15.93
67599;BMP280;62026;39.230;9.122;2023-11-19T04:04:32;101777.72;;;15.92
67599;BMP280;62026;39.230;9.122;2023-11-19T04:07:00;101769.97;;;15.91
67599;BMP280;62026;39.230;9.122;2023-11-19T04:09:27;101763.56;;;15.92
67599;BMP280;62026;39.230;9.122;2023-11-19T04:11:53;101762.19;;;15.89
67599;BMP280;62026;39.230;9.122;2023-11-19T04:14:18;101760.34;;;15.90
67599;BMP280;62026;39.230;9.122;2023-11-19T04:16:45;101768.53;;;15.88
67599;BMP280;62026;39.230;9.122;2023-11-19T04:19:11;101769.56;;;15.87
67599;BMP280;62026;39.230;9.122;2023-11-19T04:21:40;101767.13;;;15.86
67599;BMP280;62026;39.230;9.122;2023-11-19T04:24:10;101770.00;;;15.84
67599;BMP280;62026;39.230;9.122;2023-11-19T04:26:44;101762.22;;;15.83
67599;BMP280;62026;39.230;9.122;2023-11-19T04:29:16;101749.13;;;15.81
67599;BMP280;62026;39.230;9.122;2023-11-19T04:31:45;101760.59;;;15.82
67599;BMP280;62026;39.230;9.122;2023-11-19T04:34:12;101757.94;;;15.82
67599;BMP280;62026;39.230;9.122;2023-11-19T04:36:38;101760.59;;;15.82
67599;BMP280;62026;39.230;9.122;2023-11-19T04:39:05;101763.25;;;15.82
67599;BMP280;62026;39.230;9.122;2023-11-19T04:41:36;101749.59;;;15.78
67599;BMP280;62026;39.230;9.122;2023-11-19T04:44:02;101752.44;;;15.76
67599;BMP280;62026;39.230;9.122;2023-11-19T04:46:28;101760.44;;;15.76
67599;BMP280;62026;39.230;9.122;2023-11-19T04:48:54;101756.31;;;15.80
67599;BMP280;62026;39.230;9.122;2023-11-19T04:51:20;101749.94;;;15.82
67599;BMP280;62026;39.230;9.122;2023-11-19T04:53:45;101756.91;;;15.83
67599;BMP280;62026;39.230;9.122;2023-11-19T04:56:11;101754.03;;;15.84
67599;BMP280;62026;39.230;9.122;2023-11-19T04:58:39;101749.56;;;15.85
67599;BMP280;62026;39.230;9.122;2023-11-19T05:01:05;101748.50;;;15.86
67599;BMP280;62026;39.230;9.122;2023-11-19T05:03:32;101745.38;;;15.89
67599;BMP280;62026;39.230;9.122;2023-11-19T05:05:58;101751.31;;;15.91
67599;BMP280;62026;39.230;9.122;2023-11-19T05:08:25;101738.00;;;15.91
67599;BMP280;62026;39.230;9.122;2023-11-19T05:10:51;101736.38;;;15.90
67599;BMP280;62026;39.230;9.122;2023-11-19T05:13:17;101739.59;;;15.92
67599;BMP280;62026;39.230;9.122;2023-11-19T05:15:43;101735.94;;;15.93
67599;BMP280;62026;39.230;9.122;2023-11-19T05:18:08;101733.88;;;15.95
67599;BMP280;62026;39.230;9.122;2023-11-19T05:20:35;101731.22;;;15.95
67599;BMP280;62026;39.230;9.122;2023-11-19T05:23:00;101734.69;;;15.95
67599;BMP280;62026;39.230;9.122;2023-11-19T05:25:27;101732.84;;;15.96
67599;BMP280;62026;39.230;9.122;2023-11-19T05:27:53;101724.84;;;15.96
67599;BMP280;62026;39.230;9.122;2023-11-19T05:30:19;101729.72;;;15.99
67599;BMP280;62026;39.230;9.122;2023-11-19T05:32:45;101727.69;;;16.01
67599;BMP280;62026;39.230;9.122;2023-11-19T05:35:11;101724.38;;;15.99
67599;BMP280;62026;39.230;9.122;2023-11-19T05:37:38;101728.50;;;16.01
67599;BMP280;62026;39.230;9.122;2023-11-19T05:40:05;101728.25;;;16.03
67599;BMP280;62026;39.230;9.122;2023-11-19T05:42:42;101719.81;;;16.06
67599;BMP280;62026;39.230;9.122;2023-11-19T05:45:11;101721.66;;;16.05
67599;BMP280;62026;39.230;9.122;2023-11-19T05:47:37;101719.00;;;16.05
67599;BMP280;62026;39.230;9.122;2023-11-19T05:50:04;101721.44;;;16.07
67599;BMP280;62026;39.230;9.122;2023-11-19T05:52:31;101721.00;;;16.10
67599;BMP280;62026;39.230;9.122;2023-11-19T05:55:03;101723.69;;;16.10
67599;BMP280;62026;39.230;9.122;2023-11-19T05:57:39;101720.19;;;16.09
67599;BMP280;62026;39.230;9.122;2023-11-19T06:00:08;101730.41;;;16.12
67599;BMP280;62026;39.230;9.122;2023-11-19T06:02:39;101733.28;;;16.11
67599;BMP280;62026;39.230;9.122;2023-11-19T06:05:05;101732.47;;;16.10
67599;BMP280;62026;39.230;9.122;2023-11-19T06:07:33;101733.28;;;16.11
67599;BMP280;62026;39.230;9.122;2023-11-19T06:09:59;101740.25;;;16.12
67599;BMP280;62026;39.230;9.122;2023-11-19T06:12:25;101740.81;;;16.14
67599;BMP280;62026;39.230;9.122;2023-11-19T06:14:53;101743.09;;;16.17
67599;BMP280;62026;39.230;9.122;2023-11-19T06:17:19;101745.28;;;16.20
67599;BMP280;62026;39.230;9.122;2023-11-19T06:19:45;101746.09;;;16.21
67599;BMP280;62026;39.230;9.122;2023-11-19T06:22:11;101742.63;;;16.20
67599;BMP280;62026;39.230;9.122;2023-11-19T06:24:37;101739.94;;;16.20
67599;BMP280;62026;39.230;9.122;2023-11-19T06:27:03;101745.50;;;16.19
67599;BMP280;62026;39.230;9.122;2023-11-19T06:29:30;101741.78;;;16.20
67599;BMP280;62026;39.230;9.122;2023-11-19T06:31:56;101741.78;;;16.20
67599;BMP280;62026;39.230;9.122;2023-11-19T06:34:22;101746.91;;;16.21
67599;BMP280;62026;39.230;9.122;2023-11-19T06:36:48;101751.19;;;16.22
67599;BMP280;62026;39.230;9.122;2023-11-19T06:39:14;101750.38;;;16.22
67599;BMP280;62026;39.230;9.122;2023-11-19T06:41:45;101751.19;;;16.22
67599;BMP280;62026;39.230;9.122;2023-11-19T06:44:12;101756.53;;;16.22
67599;BMP280;62026;39.230;9.122;2023-11-19T06:46:38;101759.78;;;16.24
67599;BMP280;62026;39.230;9.122;2023-11-19T06:49:04;101765.94;;;16.25
67599;BMP280;62026;39.230;9.122;2023-11-19T06:51:30;101766.31;;;16.28
67599;BMP280;62026;39.230;9.122;2023-11-19T06:53:56;101773.88;;;16.31
67599;BMP280;62026;39.230;9.122;2023-11-19T06:56:23;101776.97;;;16.28
67599;BMP280;62026;39.230;9.122;2023-11-19T06:58:51;101780.22;;;16.30
67599;BMP280;62026;39.230;9.122;2023-11-19T07:01:17;101776.53;;;16.31
67599;BMP280;62026;39.230;9.122;2023-11-19T07:03:47;101772.03;;;16.32
67599;BMP280;62026;39.230;9.122;2023-11-19T07:06:14;101780.38;;;16.35
67599;BMP280;62026;39.230;9.122;2023-11-19T07:08:44;101781.81;;;16.38
67599;BMP280;62026;39.230;9.122;2023-11-19T07:11:13;101775.44;;;16.39
67599;BMP280;62026;39.230;9.122;2023-11-19T07:13:41;101775.19;;;16.40
67599;BMP280;62026;39.230;9.122;2023-11-19T07:16:08;101784.59;;;16.43
67599;BMP280;62026;39.230;9.122;2023-11-19T07:18:35;101788.91;;;16.44
67599;BMP280;62026;39.230;9.122;2023-11-19T07:21:02;101796.06;;;16.43
67599;BMP280;62026;39.230;9.122;2023-11-19T07:23:28;101801.41;;;16.43
67599;BMP280;62026;39.230;9.122;2023-11-19T07:25:54;101807.34;;;16.45
67599;BMP280;62026;39.230;9.122;2023-11-19T07:28:20;101801.78;;;16.47
67599;BMP280;62026;39.230;9.122;2023-11-19T07:30:46;101811.97;;;16.50
67599;BMP280;62026;39.230;9.122;2023-11-19T07:33:12;101805.84;;;16.49
67599;BMP280;62026;39.230;9.122;2023-11-19T07:35:39;101812.78;;;16.50
67599;BMP280;62026;39.230;9.122;2023-11-19T07:38:08;101807.06;;;16.54
67599;BMP280;62026;39.230;9.122;2023-11-19T07:40:34;101810.28;;;16.56
67599;BMP280;62026;39.230;9.122;2023-11-19T07:42:59;101817.72;;;16.54
67599;BMP280;62026;39.230;9.122;2023-11-19T07:45:26;101809.91;;;16.52
67599;BMP280;62026;39.230;9.122;2023-11-19T07:47:53;101808.69;;;16.55
67599;BMP280;62026;39.230;9.122;2023-11-19T07:50:20;101817.72;;;16.54
67599;BMP280;62026;39.230;9.122;2023-11-19T07:52:46;101812.94;;;16.56
67599;BMP280;62026;39.230;9.122;2023-11-19T07:55:12;101808.00;;;16.59
67599;BMP280;62026;39.230;9.122;2023-11-19T07:57:38;101820.66;;;16.64
67599;BMP280;62026;39.230;9.122;2023-11-19T08:00:05;101827.38;;;16.66
67599;BMP280;62026;39.230;9.122;2023-11-19T08:02:38;101830.66;;;16.68
67599;BMP280;62026;39.230;9.122;2023-11-19T08:05:05;101828.81;;;16.69
67599;BMP280;62026;39.230;9.122;2023-11-19T08:07:31;101827.91;;;16.75
67599;BMP280;62026;39.230;9.122;2023-11-19T08:09:57;101825.25;;;16.75
67599;BMP280;62026;39.230;9.122;2023-11-19T08:12:23;101840.00;;;16.77
67599;BMP280;62026;39.230;9.122;2023-11-19T08:14:49;101832.94;;;16.83
67599;BMP280;62026;39.230;9.122;2023-11-19T08:17:15;101835.75;;;16.88
67599;BMP280;62026;39.230;9.122;2023-11-19T08:19:41;101834.94;;;16.88
67599;BMP280;62026;39.230;9.122;2023-11-19T08:22:07;101837.81;;;16.86
67599;BMP280;62026;39.230;9.122;2023-11-19T08:24:35;101838.41;;;16.88
67599;BMP280;62026;39.230;9.122;2023-11-19T08:27:01;101845.97;;;16.91
67599;BMP280;62026;39.230;9.122;2023-11-19T08:29:27;101847.59;;;16.92
67599;BMP280;62026;39.230;9.122;2023-11-19T08:31:53;101841.84;;;16.95
67599;BMP280;62026;39.230;9.122;2023-11-19T08:34:19;101850.00;;;17.00
67599;BMP280;62026;39.230;9.122;2023-11-19T08:36:45;101845.81;;;17.04
67599;BMP280;62026;39.230;9.122;2023-11-19T08:39:11;101843.50;;;17.08
67599;BMP280;62026;39.230;9.122;2023-11-19T08:41:37;101836.31;;;17.08
67599;BMP280;62026;39.230;9.122;2023-11-19T08:44:05;101845.38;;;17.07
67599;BMP280;62026;39.230;9.122;2023-11-19T08:46:31;101839.00;;;17.08
67599;BMP280;62026;39.230;9.122;2023-11-19T08:48:57;101833.34;;;17.16
67599;BMP280;62026;39.230;9.122;2023-11-19T08:51:23;101831.84;;;17.20
67599;BMP280;62026;39.230;9.122;2023-11-19T08:53:50;101832.31;;;17.29
67599;BMP280;62026;39.230;9.122;2023-11-19T08:56:16;101829.72;;;17.41
67599;BMP280;62026;39.230;9.122;2023-11-19T08:58:42;101838.34;;;17.66
67599;BMP280;62026;39.230;9.122;2023-11-19T09:01:08;101830.59;;;17.88
67599;BMP280;62026;39.230;9.122;2023-11-19T09:03:35;101838.28;;;18.31
67599;BMP280;62026;39.230;9.122;2023-11-19T09:06:02;101835.66;;;18.48
67599;BMP280;62026;39.230;9.122;2023-11-19T09:08:28;101844.38;;;18.43
67599;BMP280;62026;39.230;9.122;2023-11-19T09:10:54;101846.63;;;18.46
67599;BMP280;62026;39.230;9.122;2023-11-19T09:13:20;101848.66;;;18.96
67599;BMP280;62026;39.230;9.122;2023-11-19T09:15:46;101849.75;;;19.90
67599;BMP280;62026;39.230;9.122;2023-11-19T09:18:12;101843.81;;;20.48
67599;BMP280;62026;39.230;9.122;2023-11-19T09:20:38;101842.06;;;20.16
67599;BMP280;62026;39.230;9.122;2023-11-19T09:23:05;101846.00;;;20.08
67599;BMP280;62026;39.230;9.122;2023-11-19T09:25:32;101848.06;;;20.66
67599;BMP280;62026;39.230;9.122;2023-11-19T09:27:58;101841.13;;;20.70
67599;BMP280;62026;39.230;9.122;2023-11-19T09:30:23;101848.00;;;21.15
67599;BMP280;62026;39.230;9.122;2023-11-19T09:32:49;101847.19;;;21.46
67599;BMP280;62026;39.230;9.122;2023-11-19T09:35:15;101843.06;;;21.71
67599;BMP280;62026;39.230;9.122;2023-11-19T09:37:43;101841.94;;;22.04
67599;BMP280;62026;39.230;9.122;2023-11-19T09:40:10;101842.75;;;22.04
67599;BMP280;62026;39.230;9.122;2023-11-19T09:42:44;101842.59;;;22.36
67599;BMP280;62026;39.230;9.122;2023-11-19T09:45:16;101838.00;;;22.36
67599;BMP280;62026;39.230;9.122;2023-11-19T09:47:46;101843.72;;;22.50
67599;BMP280;62026;39.230;9.122;2023-11-19T09:50:17;101834.34;;;22.78
67599;BMP280;62026;39.230;9.122;2023-11-19T09:52:46;101836.13;;;22.27
67599;BMP280;62026;39.230;9.122;2023-11-19T09:55:12;101831.50;;;22.17
67599;BMP280;62026;39.230;9.122;2023-11-19T09:57:40;101825.03;;;22.13
67599;BMP280;62026;39.230;9.122;2023-11-19T10:00:08;101823.03;;;21.88
67599;BMP280;62026;39.230;9.122;2023-11-19T10:02:37;101825.78;;;22.04
67599;BMP280;62026;39.230;9.122;2023-11-19T10:05:07;101819.41;;;22.30
67599;BMP280;62026;39.230;9.122;2023-11-19T10:07:33;101820.56;;;22.54
67599;BMP280;62026;39.230;9.122;2023-11-19T10:10:01;101824.09;;;22.75
67599;BMP280;62026;39.230;9.122;2023-11-19T10:12:28;101820.63;;;23.00
67599;BMP280;62026;39.230;9.122;2023-11-19T10:14:57;101810.41;;;23.02
67599;BMP280;62026;39.230;9.122;2023-11-19T10:17:33;101810.66;;;23.31
67599;BMP280;62026;39.230;9.122;2023-11-19T10:20:01;101802.84;;;23.34
67599;BMP280;62026;39.230;9.122;2023-11-19T10:22:28;101813.91;;;23.07
67599;BMP280;62026;39.230;9.122;2023-11-19T10:24:54;101806.88;;;22.76
67599;BMP280;62026;39.230;9.122;2023-11-19T10:27:20;101805.19;;;22.45
67599;BMP280;62026;39.230;9.122;2023-11-19T10:29:47;101802.97;;;22.21
67599;BMP280;62026;39.230;9.122;2023-11-19T10:32:14;101802.66;;;22.03
67599;BMP280;62026;39.230;9.122;2023-11-19T10:34:43;101801.94;;;21.65
67599;BMP280;62026;39.230;9.122;2023-11-19T10:37:09;101795.16;;;21.57
67599;BMP280;62026;39.230;9.122;2023-11-19T10:39:53;101782.69;;;21.46
67599;BMP280;62026;39.230;9.122;2023-11-19T10:42:20;101788.59;;;21.43
67599;BMP280;62026;39.230;9.122;2023-11-19T10:44:47;101784.78;;;21.34
67599;BMP280;62026;39.230;9.122;2023-11-19T10:47:19;101787.91;;;21.26
67599;BMP280;62026;39.230;9.122;2023-11-19T10:49:46;101785.44;;;21.14
67599;BMP280;62026;39.230;9.122;2023-11-19T10:52:18;101783.44;;;21.00
67599;BMP280;62026;39.230;9.122;2023-11-19T10:54:50;101777.50;;;20.98
67599;BMP280;62026;39.230;9.122;2023-11-19T10:57:20;101773.09;;;20.86
67599;BMP280;62026;39.230;9.122;2023-11-19T10:59:49;101769.34;;;20.88
67599;BMP280;62026;39.230;9.122;2023-11-19T11:02:22;101766.63;;;20.82
67599;BMP280;62026;39.230;9.122;2023-11-19T11:04:50;101773.63;;;20.83
67599;BMP280;62026;39.230;9.122;2023-11-19T11:07:21;101764.44;;;20.79
67599;BMP280;62026;39.230;9.122;2023-11-19T11:09:52;101757.41;;;20.73
67599;BMP280;62026;39.230;9.122;2023-11-19T11:12:21;101757.09;;;20.70
67599;BMP280;62026;39.230;9.122;2023-11-19T11:14:49;101749.72;;;20.55
67599;BMP280;62026;39.230;9.122;2023-11-19T11:17:18;101742.19;;;20.52
67599;BMP280;62026;39.230;9.122;2023-11-19T11:19:44;101737.91;;;20.56
67599;BMP280;62026;39.230;9.122;2023-11-19T11:22:11;101741.41;;;20.57
67599;BMP280;62026;39.230;9.122;2023-11-19T11:39:53;101707.94;;;20.59
67599;BMP280;62026;39.230;9.122;2023-11-19T11:45:03;101715.16;;;20.59
67599;BMP280;62026;39.230;9.122;2023-11-19T11:50:16;101704.09;;;20.50
67599;BMP280;62026;39.230;9.122;2023-11-19T11:58:06;101700.34;;;20.51
67599;BMP280;62026;39.230;9.122;2023-11-19T12:00:37;101690.69;;;20.55
67599;BMP280;62026;39.230;9.122;2023-11-19T12:03:07;101696.06;;;20.55
67599;BMP280;62026;39.230;9.122;2023-11-19T12:05:39;101680.28;;;20.59
67599;BMP280;62026;39.230;9.122;2023-11-19T12:08:07;101679.66;;;20.52
67599;BMP280;62026;39.230;9.122;2023-11-19T12:10:49;101685.84;;;20.52
67599;BMP280;62026;39.230;9.122;2023-11-19T12:13:17;101685.31;;;20.50
67599;BMP280;62026;39.230;9.122;2023-11-19T12:18:30;101674.91;;;20.59
67599;BMP280;62026;39.230;9.122;2023-11-19T12:21:00;101673.50;;;20.51
67599;BMP280;62026;39.230;9.122;2023-11-19T12:23:34;101664.88;;;20.49
67599;BMP280;62026;39.230;9.122;2023-11-19T12:26:00;101661.16;;;20.50
67599;BMP280;62026;39.230;9.122;2023-11-19T12:28:26;101662.78;;;20.51
67599;BMP280;62026;39.230;9.122;2023-11-19T12:30:53;101651.75;;;20.53
67599;BMP280;62026;39.230;9.122;2023-11-19T12:33:19;101661.63;;;20.47
67599;BMP280;62026;39.230;9.122;2023-11-19T12:35:47;101653.03;;;20.45
67599;BMP280;62026;39.230;9.122;2023-11-19T12:38:25;101648.50;;;20.45
67599;BMP280;62026;39.230;9.122;2023-11-19T12:41:07;101640.13;;;20.42
67599;BMP280;62026;39.230;9.122;2023-11-19T12:43:34;101646.06;;;20.44
67599;BMP280;62026;39.230;9.122;2023-11-19T12:46:00;101636.94;;;20.45
67599;BMP280;62026;39.230;9.122;2023-11-19T12:48:26;101643.13;;;20.45
67599;BMP280;62026;39.230;9.122;2023-11-19T12:50:58;101633.22;;;20.46
67599;BMP280;62026;39.230;9.122;2023-11-19T12:53:27;101626.22;;;20.45
67599;BMP280;62026;39.230;9.122;2023-11-19T12:55:55;101634.78;;;20.47
67599;BMP280;62026;39.230;9.122;2023-11-19T12:58:35;101629.19;;;20.48
67599;BMP280;62026;39.230;9.122;2023-11-19T13:01:06;101625.22;;;20.51
67599;BMP280;62026;39.230;9.122;2023-11-19T13:03:37;101623.00;;;20.48
67599;BMP280;62026;39.230;9.122;2023-11-19T13:06:10;101620.31;;;20.48
67599;BMP280;62026;39.230;9.122;2023-11-19T13:08:42;101616.06;;;20.52
67599;BMP280;62026;39.230;9.122;2023-11-19T13:11:13;101618.22;;;20.50
67599;BMP280;62026;39.230;9.122;2023-11-19T13:14:03;101617.13;;;20.46
67599;BMP280;62026;39.230;9.122;2023-11-19T13:16:31;101606.63;;;20.44
67599;BMP280;62026;39.230;9.122;2023-11-19T13:18:57;101603.69;;;20.46
67599;BMP280;62026;39.230;9.122;2023-11-19T13:21:25;101606.38;;;20.46
67599;BMP280;62026;39.230;9.122;2023-11-19T13:23:52;101599.41;;;20.45
67599;BMP280;62026;39.230;9.122;2023-11-19T13:26:18;101605.28;;;20.47
67599;BMP280;62026;39.230;9.122;2023-11-19T13:28:44;101604.53;;;20.52
67599;BMP280;62026;39.230;9.122;2023-11-19T13:31:10;101610.72;;;20.52
67599;BMP280;62026;39.230;9.122;2023-11-19T13:33:36;101602.94;;;20.56
67599;BMP280;62026;39.230;9.122;2023-11-19T13:36:03;101604.28;;;20.53
67599;BMP280;62026;39.230;9.122;2023-11-19T13:38:33;101597.78;;;20.49
67599;BMP280;62026;39.230;9.122;2023-11-19T13:40:59;101598.38;;;20.51
67599;BMP280;62026;39.230;9.122;2023-11-19T13:43:26;101602.13;;;20.50
67599;BMP280;62026;39.230;9.122;2023-11-19T13:45:54;101596.19;;;20.48
67599;BMP280;62026;39.230;9.122;2023-11-19T13:48:21;101593.50;;;20.48
67599;BMP280;62026;39.230;9.122;2023-11-19T13:50:47;101598.38;;;20.51
67599;BMP280;62026;39.230;9.122;2023-11-19T13:53:13;101602.94;;;20.51
67599;BMP280;62026;39.230;9.122;2023-11-19T13:55:39;101591.41;;;20.50
67599;BMP280;62026;39.230;9.122;2023-11-19T13:58:05;101588.72;;;20.50
67599;BMP280;62026;39.230;9.122;2023-11-19T14:00:31;101591.69;;;20.54
67599;BMP280;62026;39.230;9.122;2023-11-19T14:02:57;101590.34;;;20.51
67599;BMP280;62026;39.230;9.122;2023-11-19T14:05:23;101590.88;;;20.53
67599;BMP280;62026;39.230;9.122;2023-11-19T14:07:49;101588.75;;;20.55
67599;BMP280;62026;39.230;9.122;2023-11-19T14:10:16;101587.66;;;20.51
67599;BMP280;62026;39.230;9.122;2023-11-19T14:12:42;101580.66;;;20.50
67599;BMP280;62026;39.230;9.122;2023-11-19T14:15:09;101584.38;;;20.49
67599;BMP280;62026;39.230;9.122;2023-11-19T14:17:38;101583.28;;;20.45
67599;BMP280;62026;39.230;9.122;2023-11-19T14:20:05;101577.94;;;20.45
67599;BMP280;62026;39.230;9.122;2023-11-19T14:22:45;101583.28;;;20.45
67599;BMP280;62026;39.230;9.122;2023-11-19T14:25:15;101583.03;;;20.46
67599;BMP280;62026;39.230;9.122;2023-11-19T14:27:43;101578.75;;;20.45